Terminal Aerodrome Forecast
Issued by NWS New Orleans/Baton Rouge, LA

Current Version | Previous Version | Text Only | Print | Product List | Glossary On
Versions: 1 2 3 4 5 6 7 8 9 10 11 12 13 14
712
FTUS44 KLIX 200753 AAA
TAFBTR
TAF AMD
KBTR 200753Z 2008/2106 02004KT 2SM BR SCT002
      TEMPO 2009/2013 1/2SM FG BKN001
     FM202100 08005KT P6SM SCT040 BKN050 PROB30 2021/2024 4SM TSRA
      BKN040CB=

USA.gov is the U.S. government's official web portal to all federal, state and local government web resources and services.